sensor_id;sensor_type;location;lat;lon;timestamp;P1;durP1;ratioP1;P2;durP2;ratioP2
31442;SDS011;18065;55.876;9.830;2022-11-20T19:56:51;13.93;;;4.72;;
31442;SDS011;18065;55.876;9.830;2022-11-20T19:59:20;13.50;;;5.32;;
31442;SDS011;18065;55.876;9.830;2022-11-20T20:01:48;10.07;;;4.65;;
31442;SDS011;18065;55.876;9.830;2022-11-20T20:04:17;12.77;;;5.20;;
31442;SDS011;18065;55.876;9.830;2022-11-20T20:06:46;7.88;;;4.57;;
31442;SDS011;18065;55.876;9.830;2022-11-20T20:09:15;8.48;;;4.65;;
31442;SDS011;18065;55.876;9.830;2022-11-20T20:11:44;9.18;;;4.85;;
31442;SDS011;18065;55.876;9.830;2022-11-20T20:14:16;8.82;;;4.63;;
31442;SDS011;18065;55.876;9.830;2022-11-20T20:16:45;10.30;;;5.45;;
31442;SDS011;18065;55.876;9.830;2022-11-20T20:19:14;7.85;;;4.35;;
31442;SDS011;18065;55.876;9.830;2022-11-20T20:21:43;6.50;;;4.45;;
31442;SDS011;18065;55.876;9.830;2022-11-20T20:24:12;6.60;;;4.40;;
31442;SDS011;18065;55.876;9.830;2022-11-20T20:26:40;6.43;;;4.10;;
31442;SDS011;18065;55.876;9.830;2022-11-20T20:29:09;7.50;;;3.95;;
31442;SDS011;18065;55.876;9.830;2022-11-20T20:31:40;9.85;;;4.50;;
31442;SDS011;18065;55.876;9.830;2022-11-20T20:34:09;5.47;;;3.95;;
31442;SDS011;18065;55.876;9.830;2022-11-20T20:36:38;6.40;;;3.97;;
31442;SDS011;18065;55.876;9.830;2022-11-20T20:39:08;7.03;;;4.05;;
31442;SDS011;18065;55.876;9.830;2022-11-20T20:41:38;6.53;;;4.00;;
31442;SDS011;18065;55.876;9.830;2022-11-20T20:44:07;8.82;;;4.53;;
31442;SDS011;18065;55.876;9.830;2022-11-20T20:46:53;5.90;;;3.57;;
31442;SDS011;18065;55.876;9.830;2022-11-20T20:49:21;8.63;;;4.13;;
31442;SDS011;18065;55.876;9.830;2022-11-20T20:51:50;7.90;;;3.63;;
31442;SDS011;18065;55.876;9.830;2022-11-20T20:54:19;5.60;;;3.92;;
31442;SDS011;18065;55.876;9.830;2022-11-20T20:56:49;8.63;;;4.10;;
31442;SDS011;18065;55.876;9.830;2022-11-20T20:59:18;5.78;;;3.90;;
31442;SDS011;18065;55.876;9.830;2022-11-20T21:01:46;5.40;;;3.63;;
31442;SDS011;18065;55.876;9.830;2022-11-20T21:04:18;7.65;;;3.65;;
31442;SDS011;18065;55.876;9.830;2022-11-20T21:06:46;6.03;;;3.60;;
31442;SDS011;18065;55.876;9.830;2022-11-20T21:09:15;6.97;;;3.63;;
31442;SDS011;18065;55.876;9.830;2022-11-20T21:11:44;7.22;;;4.13;;
31442;SDS011;18065;55.876;9.830;2022-11-20T21:14:13;15.60;;;4.20;;
31442;SDS011;18065;55.876;9.830;2022-11-20T21:16:41;10.00;;;3.50;;
31442;SDS011;18065;55.876;9.830;2022-11-20T21:19:10;8.48;;;3.75;;
31442;SDS011;18065;55.876;9.830;2022-11-20T21:21:41;8.45;;;3.75;;
31442;SDS011;18065;55.876;9.830;2022-11-20T21:24:22;6.75;;;3.38;;
31442;SDS011;18065;55.876;9.830;2022-11-20T21:26:51;6.15;;;3.67;;
31442;SDS011;18065;55.876;9.830;2022-11-20T21:29:21;6.80;;;3.53;;
31442;SDS011;18065;55.876;9.830;2022-11-20T21:31:50;5.53;;;3.20;;
31442;SDS011;18065;55.876;9.830;2022-11-20T21:34:19;6.47;;;3.45;;
31442;SDS011;18065;55.876;9.830;2022-11-20T21:36:51;5.28;;;3.17;;
31442;SDS011;18065;55.876;9.830;2022-11-20T21:39:20;4.93;;;3.33;;
31442;SDS011;18065;55.876;9.830;2022-11-20T21:41:49;5.72;;;3.67;;
31442;SDS011;18065;55.876;9.830;2022-11-20T21:44:17;6.53;;;2.97;;
31442;SDS011;18065;55.876;9.830;2022-11-20T21:46:46;5.63;;;3.30;;
31442;SDS011;18065;55.876;9.830;2022-11-20T21:49:14;4.78;;;3.15;;
31442;SDS011;18065;55.876;9.830;2022-11-20T21:51:43;5.32;;;2.90;;
31442;SDS011;18065;55.876;9.830;2022-11-20T21:54:14;5.03;;;3.03;;
31442;SDS011;18065;55.876;9.830;2022-11-20T21:56:44;5.63;;;3.45;;
31442;SDS011;18065;55.876;9.830;2022-11-20T21:59:13;4.15;;;2.97;;
31442;SDS011;18065;55.876;9.830;2022-11-20T22:01:41;3.83;;;2.70;;
31442;SDS011;18065;55.876;9.830;2022-11-20T22:04:11;7.03;;;3.17;;
31442;SDS011;18065;55.876;9.830;2022-11-20T22:06:40;5.40;;;3.63;;
31442;SDS011;18065;55.876;9.830;2022-11-20T22:09:09;4.28;;;2.97;;
31442;SDS011;18065;55.876;9.830;2022-11-20T22:11:41;3.85;;;2.83;;
31442;SDS011;18065;55.876;9.830;2022-11-20T22:14:09;3.13;;;2.75;;
31442;SDS011;18065;55.876;9.830;2022-11-20T22:16:44;6.65;;;2.95;;
31442;SDS011;18065;55.876;9.830;2022-11-20T22:19:14;4.85;;;3.13;;
31442;SDS011;18065;55.876;9.830;2022-11-20T22:21:44;6.60;;;3.22;;
31442;SDS011;18065;55.876;9.830;2022-11-20T22:24:13;4.35;;;2.92;;
31442;SDS011;18065;55.876;9.830;2022-11-20T22:26:46;5.30;;;2.88;;
31442;SDS011;18065;55.876;9.830;2022-11-20T22:29:16;5.65;;;2.88;;
31442;SDS011;18065;55.876;9.830;2022-11-20T22:31:45;4.40;;;2.60;;
31442;SDS011;18065;55.876;9.830;2022-11-20T22:34:14;4.43;;;2.97;;
31442;SDS011;18065;55.876;9.830;2022-11-20T22:36:43;6.65;;;3.15;;
31442;SDS011;18065;55.876;9.830;2022-11-20T22:39:12;4.20;;;2.80;;
31442;SDS011;18065;55.876;9.830;2022-11-20T22:41:40;6.93;;;2.65;;
31442;SDS011;18065;55.876;9.830;2022-11-20T22:44:13;3.78;;;2.95;;
31442;SDS011;18065;55.876;9.830;2022-11-20T22:46:43;7.72;;;3.30;;
31442;SDS011;18065;55.876;9.830;2022-11-20T22:49:11;4.63;;;2.95;;
31442;SDS011;18065;55.876;9.830;2022-11-20T22:51:40;3.85;;;2.72;;
31442;SDS011;18065;55.876;9.830;2022-11-20T22:54:09;5.90;;;2.40;;
31442;SDS011;18065;55.876;9.830;2022-11-20T22:56:38;3.50;;;2.45;;
31442;SDS011;18065;55.876;9.830;2022-11-20T22:59:07;4.20;;;2.40;;
31442;SDS011;18065;55.876;9.830;2022-11-20T23:01:39;3.72;;;2.72;;
31442;SDS011;18065;55.876;9.830;2022-11-20T23:04:08;4.32;;;2.63;;
31442;SDS011;18065;55.876;9.830;2022-11-20T23:06:37;3.92;;;2.53;;
31442;SDS011;18065;55.876;9.830;2022-11-20T23:09:06;4.50;;;2.88;;
31442;SDS011;18065;55.876;9.830;2022-11-20T23:11:37;3.45;;;2.97;;
31442;SDS011;18065;55.876;9.830;2022-11-20T23:14:06;4.35;;;2.65;;
31442;SDS011;18065;55.876;9.830;2022-11-20T23:19:10;3.35;;;2.72;;
31442;SDS011;18065;55.876;9.830;2022-11-20T23:21:40;5.65;;;2.45;;
31442;SDS011;18065;55.876;9.830;2022-11-20T23:24:10;3.80;;;2.63;;
31442;SDS011;18065;55.876;9.830;2022-11-20T23:26:39;4.38;;;2.60;;
31442;SDS011;18065;55.876;9.830;2022-11-20T23:29:09;2.60;;;2.13;;
31442;SDS011;18065;55.876;9.830;2022-11-20T23:31:38;4.13;;;2.63;;
31442;SDS011;18065;55.876;9.830;2022-11-20T23:34:10;5.78;;;2.45;;
31442;SDS011;18065;55.876;9.830;2022-11-20T23:36:38;3.95;;;2.30;;
31442;SDS011;18065;55.876;9.830;2022-11-20T23:39:07;3.38;;;2.33;;
31442;SDS011;18065;55.876;9.830;2022-11-20T23:41:36;4.63;;;2.60;;
31442;SDS011;18065;55.876;9.830;2022-11-20T23:44:05;2.83;;;2.53;;
31442;SDS011;18065;55.876;9.830;2022-11-20T23:46:34;3.00;;;2.15;;
31442;SDS011;18065;55.876;9.830;2022-11-20T23:49:03;3.72;;;2.22;;
31442;SDS011;18065;55.876;9.830;2022-11-20T23:51:34;3.55;;;2.40;;
31442;SDS011;18065;55.876;9.830;2022-11-20T23:54:03;3.50;;;2.30;;
31442;SDS011;18065;55.876;9.830;2022-11-20T23:56:31;3.58;;;2.15;;
31442;SDS011;18065;55.876;9.830;2022-11-20T23:59:00;3.35;;;2.45;;
